sensor_id;sensor_type;location;lat;lon;timestamp;pressure;altitude;pressure_sealevel;temperature;humidity
64844;BME280;51310;52.198;5.422;2023-02-28T00:00:33;102951.72;;;0.76;100.00
64844;BME280;51310;52.198;5.422;2023-02-28T00:03:00;102959.59;;;0.78;100.00
64844;BME280;51310;52.198;5.422;2023-02-28T00:05:27;102962.78;;;0.77;100.00
64844;BME280;51310;52.198;5.422;2023-02-28T00:07:54;102971.28;;;0.77;100.00
64844;BME280;51310;52.198;5.422;2023-02-28T00:10:26;102966.91;;;0.76;100.00
64844;BME280;51310;52.198;5.422;2023-02-28T00:12:55;102969.94;;;0.79;100.00
64844;BME280;51310;52.198;5.422;2023-02-28T00:15:23;102965.66;;;0.84;100.00
64844;BME280;51310;52.198;5.422;2023-02-28T00:17:50;102973.25;;;0.84;100.00
64844;BME280;51310;52.198;5.422;2023-02-28T00:20:16;102972.59;;;0.85;100.00
64844;BME280;51310;52.198;5.422;2023-02-28T00:22:45;102974.59;;;0.82;100.00
64844;BME280;51310;52.198;5.422;2023-02-28T00:25:16;102971.16;;;0.81;100.00
64844;BME280;51310;52.198;5.422;2023-02-28T00:27:42;102975.03;;;0.79;100.00
64844;BME280;51310;52.198;5.422;2023-02-28T00:30:13;102971.44;;;0.73;100.00
64844;BME280;51310;52.198;5.422;2023-02-28T00:32:40;102967.41;;;0.79;100.00
64844;BME280;51310;52.198;5.422;2023-02-28T00:35:07;102967.69;;;0.81;100.00
64844;BME280;51310;52.198;5.422;2023-02-28T00:37:33;102972.59;;;0.85;100.00
64844;BME280;51310;52.198;5.422;2023-02-28T00:39:59;102964.22;;;0.80;100.00
64844;BME280;51310;52.198;5.422;2023-02-28T00:42:24;102959.41;;;0.82;100.00
64844;BME280;51310;52.198;5.422;2023-02-28T00:44:50;102955.63;;;0.90;100.00
64844;BME280;51310;52.198;5.422;2023-02-28T00:47:16;102959.63;;;0.93;100.00
64844;BME280;51310;52.198;5.422;2023-02-28T00:49:42;102961.63;;;0.90;100.00
64844;BME280;51310;52.198;5.422;2023-02-28T00:52:08;102958.66;;;0.93;100.00
64844;BME280;51310;52.198;5.422;2023-02-28T00:54:34;102958.53;;;0.97;100.00
64844;BME280;51310;52.198;5.422;2023-02-28T00:57:00;102955.75;;;0.95;100.00
64844;BME280;51310;52.198;5.422;2023-02-28T00:59:30;102957.16;;;0.99;100.00
64844;BME280;51310;52.198;5.422;2023-02-28T01:01:55;102961.06;;;0.97;100.00
64844;BME280;51310;52.198;5.422;2023-02-28T01:04:22;102960.41;;;0.98;100.00
64844;BME280;51310;52.198;5.422;2023-02-28T01:06:47;102958.00;;;0.94;100.00
64844;BME280;51310;52.198;5.422;2023-02-28T01:09:13;102963.59;;;0.97;100.00
64844;BME280;51310;52.198;5.422;2023-02-28T01:11:39;102961.06;;;0.97;100.00
64844;BME280;51310;52.198;5.422;2023-02-28T01:14:07;102966.75;;;1.06;100.00
64844;BME280;51310;52.198;5.422;2023-02-28T01:16:33;102965.97;;;1.01;100.00
64844;BME280;51310;52.198;5.422;2023-02-28T01:18:59;102964.78;;;0.99;100.00
64844;BME280;51310;52.198;5.422;2023-02-28T01:21:25;102957.44;;;1.00;100.00
64844;BME280;51310;52.198;5.422;2023-02-28T01:23:51;102957.94;;;1.03;100.00
64844;BME280;51310;52.198;5.422;2023-02-28T01:26:22;102959.97;;;1.00;100.00
64844;BME280;51310;52.198;5.422;2023-02-28T01:28:50;102960.66;;;0.99;100.00
64844;BME280;51310;52.198;5.422;2023-02-28T01:31:16;102949.84;;;1.00;100.00
64844;BME280;51310;52.198;5.422;2023-02-28T01:33:42;102951.03;;;1.02;100.00
64844;BME280;51310;52.198;5.422;2023-02-28T01:36:11;102947.44;;;0.96;100.00
64844;BME280;51310;52.198;5.422;2023-02-28T01:38:38;102948.91;;;1.00;100.00
64844;BME280;51310;52.198;5.422;2023-02-28T01:41:05;102950.75;;;1.01;100.00
64844;BME280;51310;52.198;5.422;2023-02-28T01:46:10;102951.03;;;1.02;100.00
64844;BME280;51310;52.198;5.422;2023-02-28T01:48:54;102954.22;;;1.01;100.00
64844;BME280;51310;52.198;5.422;2023-02-28T01:54:18;102948.59;;;1.08;100.00
64844;BME280;51310;52.198;5.422;2023-02-28T01:57:07;102950.88;;;1.07;100.00
64844;BME280;51310;52.198;5.422;2023-02-28T01:59:38;102945.66;;;1.11;100.00
64844;BME280;51310;52.198;5.422;2023-02-28T02:02:06;102940.47;;;1.05;100.00
64844;BME280;51310;52.198;5.422;2023-02-28T02:04:42;102934.72;;;1.06;100.00
64844;BME280;51310;52.198;5.422;2023-02-28T02:07:13;102935.72;;;1.12;100.00
64844;BME280;51310;52.198;5.422;2023-02-28T02:09:39;102933.31;;;1.18;100.00
64844;BME280;51310;52.198;5.422;2023-02-28T02:15:23;102929.84;;;1.17;100.00
64844;BME280;51310;52.198;5.422;2023-02-28T02:17:57;102936.00;;;1.14;100.00
64844;BME280;51310;52.198;5.422;2023-02-28T02:20:38;102932.13;;;1.16;100.00
64844;BME280;51310;52.198;5.422;2023-02-28T02:35:56;102933.84;;;1.21;100.00
64844;BME280;51310;52.198;5.422;2023-02-28T02:38:39;102929.00;;;1.22;100.00
64844;BME280;51310;52.198;5.422;2023-02-28T02:41:52;102929.84;;;1.17;100.00
64844;BME280;51310;52.198;5.422;2023-02-28T02:44:21;102927.47;;;1.13;100.00
64844;BME280;51310;52.198;5.422;2023-02-28T02:46:55;102931.47;;;1.17;100.00
64844;BME280;51310;52.198;5.422;2023-02-28T02:49:33;102935.41;;;1.20;100.00
64844;BME280;51310;52.198;5.422;2023-02-28T02:52:06;102933.84;;;1.21;100.00
64844;BME280;51310;52.198;5.422;2023-02-28T02:54:41;102929.16;;;1.18;100.00
64844;BME280;51310;52.198;5.422;2023-02-28T02:57:23;102921.97;;;1.16;100.00
64844;BME280;51310;52.198;5.422;2023-02-28T02:59:53;102919.84;;;1.13;100.00
64844;BME280;51310;52.198;5.422;2023-02-28T03:02:21;102926.63;;;1.18;100.00
64844;BME280;51310;52.198;5.422;2023-02-28T03:04:58;102931.03;;;1.19;100.00
64844;BME280;51310;52.198;5.422;2023-02-28T03:07:26;102924.34;;;1.20;100.00
64844;BME280;51310;52.198;5.422;2023-02-28T03:09:55;102926.47;;;1.22;100.00
64844;BME280;51310;52.198;5.422;2023-02-28T03:12:28;102929.25;;;1.24;100.00
64844;BME280;51310;52.198;5.422;2023-02-28T03:15:19;102930.94;;;1.29;100.00
64844;BME280;51310;52.198;5.422;2023-02-28T03:18:16;102926.25;;;1.36;100.00
64844;BME280;51310;52.198;5.422;2023-02-28T03:21:00;102926.41;;;1.32;100.00
64844;BME280;51310;52.198;5.422;2023-02-28T03:23:56;102933.31;;;1.33;100.00
64844;BME280;51310;52.198;5.422;2023-02-28T03:26:27;102925.97;;;1.35;100.00
64844;BME280;51310;52.198;5.422;2023-02-28T03:29:06;102932.88;;;1.36;100.00
64844;BME280;51310;52.198;5.422;2023-02-28T03:31:59;102927.97;;;1.32;100.00
64844;BME280;51310;52.198;5.422;2023-02-28T03:34:42;102927.97;;;1.32;100.00
64844;BME280;51310;52.198;5.422;2023-02-28T03:37:18;102929.16;;;1.34;100.00
64844;BME280;51310;52.198;5.422;2023-02-28T03:40:06;102928.78;;;1.36;100.00
64844;BME280;51310;52.198;5.422;2023-02-28T03:42:36;102929.44;;;1.35;100.00
64844;BME280;51310;52.198;5.422;2023-02-28T03:45:11;102938.91;;;1.36;100.00
64844;BME280;51310;52.198;5.422;2023-02-28T03:47:41;102943.56;;;1.39;100.00
64844;BME280;51310;52.198;5.422;2023-02-28T03:50:27;102948.53;;;1.33;100.00
64844;BME280;51310;52.198;5.422;2023-02-28T03:53:01;102945.34;;;1.34;100.00
64844;BME280;51310;52.198;5.422;2023-02-28T03:55:43;102954.81;;;1.35;100.00
64844;BME280;51310;52.198;5.422;2023-02-28T04:01:07;102943.03;;;1.36;100.00
64844;BME280;51310;52.198;5.422;2023-02-28T04:03:37;102946.94;;;1.34;100.00
64844;BME280;51310;52.198;5.422;2023-02-28T04:06:06;102945.56;;;1.36;100.00
64844;BME280;51310;52.198;5.422;2023-02-28T04:08:33;102948.28;;;1.32;100.00
64844;BME280;51310;52.198;5.422;2023-02-28T04:11:30;102948.03;;;1.30;100.00
64844;BME280;51310;52.198;5.422;2023-02-28T04:13:57;102943.41;;;1.28;100.00
64844;BME280;51310;52.198;5.422;2023-02-28T04:16:23;102950.22;;;1.23;100.00
64844;BME280;51310;52.198;5.422;2023-02-28T04:18:49;102946.84;;;1.28;100.00
64844;BME280;51310;52.198;5.422;2023-02-28T04:21:15;102948.97;;;1.31;100.00
64844;BME280;51310;52.198;5.422;2023-02-28T04:23:40;102951.16;;;1.23;100.00
64844;BME280;51310;52.198;5.422;2023-02-28T04:26:07;102954.88;;;1.26;100.00
64844;BME280;51310;52.198;5.422;2023-02-28T04:28:33;102951.81;;;1.22;100.00
64844;BME280;51310;52.198;5.422;2023-02-28T04:31:03;102955.69;;;1.20;100.00
64844;BME280;51310;52.198;5.422;2023-02-28T04:33:31;102958.00;;;1.19;100.00
64844;BME280;51310;52.198;5.422;2023-02-28T04:36:07;102956.13;;;1.18;100.00
64844;BME280;51310;52.198;5.422;2023-02-28T04:38:36;102955.63;;;1.15;100.00
64844;BME280;51310;52.198;5.422;2023-02-28T04:41:03;102957.41;;;1.10;100.00
64844;BME280;51310;52.198;5.422;2023-02-28T04:43:31;102959.56;;;1.03;100.00
64844;BME280;51310;52.198;5.422;2023-02-28T04:46:00;102963.59;;;0.97;100.00
64844;BME280;51310;52.198;5.422;2023-02-28T04:48:29;102957.91;;;0.88;100.00
64844;BME280;51310;52.198;5.422;2023-02-28T04:51:00;102959.38;;;0.92;100.00
64844;BME280;51310;52.198;5.422;2023-02-28T04:53:27;102946.84;;;0.88;100.00
64844;BME280;51310;52.198;5.422;2023-02-28T04:55:55;102949.91;;;0.91;100.00
64844;BME280;51310;52.198;5.422;2023-02-28T04:58:21;102956.97;;;0.88;100.00
64844;BME280;51310;52.198;5.422;2023-02-28T05:00:50;102956.97;;;0.88;100.00
64844;BME280;51310;52.198;5.422;2023-02-28T05:03:15;102952.47;;;0.81;100.00
64844;BME280;51310;52.198;5.422;2023-02-28T05:05:41;102952.84;;;0.88;100.00
64844;BME280;51310;52.198;5.422;2023-02-28T05:08:07;102952.34;;;0.85;100.00
64844;BME280;51310;52.198;5.422;2023-02-28T05:10:33;102949.44;;;0.78;100.00
64844;BME280;51310;52.198;5.422;2023-02-28T05:12:59;102942.38;;;0.71;100.00
64844;BME280;51310;52.198;5.422;2023-02-28T05:15:24;102945.59;;;0.70;100.00
64844;BME280;51310;52.198;5.422;2023-02-28T05:17:50;102959.88;;;0.70;100.00
64844;BME280;51310;52.198;5.422;2023-02-28T05:20:16;102959.97;;;0.50;100.00
64844;BME280;51310;52.198;5.422;2023-02-28T05:22:43;102969.31;;;0.46;100.00
64844;BME280;51310;52.198;5.422;2023-02-28T05:25:20;102966.16;;;0.37;100.00
64844;BME280;51310;52.198;5.422;2023-02-28T05:27:50;102962.56;;;0.31;100.00
64844;BME280;51310;52.198;5.422;2023-02-28T05:30:16;102963.13;;;0.24;100.00
64844;BME280;51310;52.198;5.422;2023-02-28T05:32:42;102965.88;;;0.26;100.00
64844;BME280;51310;52.198;5.422;2023-02-28T05:35:10;102970.94;;;0.26;100.00
64844;BME280;51310;52.198;5.422;2023-02-28T05:37:38;102974.72;;;0.18;100.00
64844;BME280;51310;52.198;5.422;2023-02-28T05:40:06;102971.13;;;0.12;100.00
64844;BME280;51310;52.198;5.422;2023-02-28T05:42:33;102965.69;;;0.05;100.00
64844;BME280;51310;52.198;5.422;2023-02-28T05:44:58;102966.06;;;0.02;100.00
64844;BME280;51310;52.198;5.422;2023-02-28T05:47:24;102972.88;;;-0.03;100.00
64844;BME280;51310;52.198;5.422;2023-02-28T05:49:50;102975.56;;;0.03;100.00
64844;BME280;51310;52.198;5.422;2023-02-28T05:52:16;102980.34;;;0.02;100.00
64844;BME280;51310;52.198;5.422;2023-02-28T05:54:42;102979.00;;;0.04;100.00
64844;BME280;51310;52.198;5.422;2023-02-28T05:57:08;102967.28;;;0.04;100.00
64844;BME280;51310;52.198;5.422;2023-02-28T05:59:33;102981.81;;;0.05;100.00
64844;BME280;51310;52.198;5.422;2023-02-28T06:01:59;102982.22;;;0.03;100.00
64844;BME280;51310;52.198;5.422;2023-02-28T06:04:25;102971.13;;;0.02;100.00
64844;BME280;51310;52.198;5.422;2023-02-28T06:06:51;102974.50;;;0.07;100.00
64844;BME280;51310;52.198;5.422;2023-02-28T06:09:18;102975.28;;;0.02;100.00
64844;BME280;51310;52.198;5.422;2023-02-28T06:11:44;102971.28;;;0.08;100.00
64844;BME280;51310;52.198;5.422;2023-02-28T06:14:17;102978.72;;;0.12;100.00
64844;BME280;51310;52.198;5.422;2023-02-28T06:16:44;102971.97;;;0.07;100.00
64844;BME280;51310;52.198;5.422;2023-02-28T06:19:10;102967.13;;;0.08;100.00
64844;BME280;51310;52.198;5.422;2023-02-28T06:21:37;102963.31;;;0.01;100.00
64844;BME280;51310;52.198;5.422;2023-02-28T06:24:03;102957.69;;;0.07;100.00
64844;BME280;51310;52.198;5.422;2023-02-28T06:26:29;102969.28;;;-0.09;100.00
64844;BME280;51310;52.198;5.422;2023-02-28T06:28:55;102964.91;;;-0.10;100.00
64844;BME280;51310;52.198;5.422;2023-02-28T06:31:22;102968.13;;;-0.11;100.00
64844;BME280;51310;52.198;5.422;2023-02-28T06:33:48;102975.97;;;-0.19;100.00
64844;BME280;51310;52.198;5.422;2023-02-28T06:36:16;102967.84;;;-0.22;100.00
64844;BME280;51310;52.198;5.422;2023-02-28T06:38:43;102971.81;;;-0.09;100.00
64844;BME280;51310;52.198;5.422;2023-02-28T06:41:10;102975.97;;;-0.09;100.00
64844;BME280;51310;52.198;5.422;2023-02-28T06:43:41;102978.34;;;-0.05;100.00
64844;BME280;51310;52.198;5.422;2023-02-28T06:46:12;102976.38;;;-0.02;100.00
64844;BME280;51310;52.198;5.422;2023-02-28T06:48:39;102968.59;;;0.12;100.00
64844;BME280;51310;52.198;5.422;2023-02-28T06:51:13;102969.44;;;0.07;100.00
64844;BME280;51310;52.198;5.422;2023-02-28T06:53:40;102971.69;;;-0.05;100.00
64844;BME280;51310;52.198;5.422;2023-02-28T06:56:11;102972.09;;;-0.07;100.00
64844;BME280;51310;52.198;5.422;2023-02-28T06:58:37;102961.97;;;-0.07;100.00
64844;BME280;51310;52.198;5.422;2023-02-28T07:01:06;102974.22;;;-0.05;100.00
64844;BME280;51310;52.198;5.422;2023-02-28T07:03:32;102977.84;;;-0.08;100.00
64844;BME280;51310;52.198;5.422;2023-02-28T07:05:58;102986.63;;;-0.06;100.00
64844;BME280;51310;52.198;5.422;2023-02-28T07:08:25;102981.03;;;0.01;100.00
64844;BME280;51310;52.198;5.422;2023-02-28T07:10:54;102983.41;;;0.05;100.00
64844;BME280;51310;52.198;5.422;2023-02-28T07:13:20;102982.03;;;0.16;100.00
64844;BME280;51310;52.198;5.422;2023-02-28T07:15:57;102982.31;;;0.18;100.00
64844;BME280;51310;52.198;5.422;2023-02-28T07:18:24;102992.44;;;0.18;100.00
64844;BME280;51310;52.198;5.422;2023-02-28T07:20:49;102992.03;;;0.20;100.00
64844;BME280;51310;52.198;5.422;2023-02-28T07:23:15;102998.16;;;0.17;100.00
64844;BME280;51310;52.198;5.422;2023-02-28T07:25:41;102999.78;;;0.16;100.00
64844;BME280;51310;52.198;5.422;2023-02-28T07:28:07;102983.78;;;0.12;100.00
64844;BME280;51310;52.198;5.422;2023-02-28T07:30:32;102986.72;;;0.09;100.00
64844;BME280;51310;52.198;5.422;2023-02-28T07:32:58;102976.44;;;0.23;100.00
64844;BME280;51310;52.198;5.422;2023-02-28T07:35:24;102986.19;;;0.16;100.00
64844;BME280;51310;52.198;5.422;2023-02-28T07:37:50;102985.78;;;0.18;100.00
64844;BME280;51310;52.198;5.422;2023-02-28T07:40:15;102998.84;;;0.16;100.00
64844;BME280;51310;52.198;5.422;2023-02-28T07:42:43;102998.84;;;0.16;100.00
64844;BME280;51310;52.198;5.422;2023-02-28T07:45:10;102992.31;;;0.22;100.00
64844;BME280;51310;52.198;5.422;2023-02-28T07:47:41;102999.81;;;0.07;100.00
64844;BME280;51310;52.198;5.422;2023-02-28T07:50:10;103012.59;;;0.03;100.00
64844;BME280;51310;52.198;5.422;2023-02-28T07:52:38;103003.25;;;-0.03;100.00
64844;BME280;51310;52.198;5.422;2023-02-28T07:55:06;102991.25;;;0.06;100.00
64844;BME280;51310;52.198;5.422;2023-02-28T07:57:32;102988.59;;;0.10;100.00
64844;BME280;51310;52.198;5.422;2023-02-28T07:59:58;102999.94;;;0.03;100.00
64844;BME280;51310;52.198;5.422;2023-02-28T08:02:24;102997.38;;;0.12;100.00
64844;BME280;51310;52.198;5.422;2023-02-28T08:04:50;103007.41;;;0.07;100.00
64844;BME280;51310;52.198;5.422;2023-02-28T08:07:17;103009.25;;;0.08;100.00
64844;BME280;51310;52.198;5.422;2023-02-28T08:09:44;102998.03;;;0.21;100.00
64844;BME280;51310;52.198;5.422;2023-02-28T08:12:11;103009.22;;;0.27;100.00
64844;BME280;51310;52.198;5.422;2023-02-28T08:14:37;103018.28;;;0.31;100.00
64844;BME280;51310;52.198;5.422;2023-02-28T08:17:04;103023.03;;;0.49;100.00
64844;BME280;51310;52.198;5.422;2023-02-28T08:19:30;103019.72;;;0.44;100.00
64844;BME280;51310;52.198;5.422;2023-02-28T08:21:56;103024.78;;;0.44;100.00
64844;BME280;51310;52.198;5.422;2023-02-28T08:24:22;103021.13;;;0.57;100.00
64844;BME280;51310;52.198;5.422;2023-02-28T08:26:48;103024.94;;;0.75;100.00
64844;BME280;51310;52.198;5.422;2023-02-28T08:29:14;103024.06;;;0.90;100.00
64844;BME280;51310;52.198;5.422;2023-02-28T08:31:41;103019.38;;;0.97;100.00
64844;BME280;51310;52.198;5.422;2023-02-28T08:34:13;103021.34;;;1.03;100.00
64844;BME280;51310;52.198;5.422;2023-02-28T08:36:40;103017.53;;;0.96;100.00
64844;BME280;51310;52.198;5.422;2023-02-28T08:39:07;103018.50;;;1.12;100.00
64844;BME280;51310;52.198;5.422;2023-02-28T08:41:33;103016.06;;;1.17;100.00
64844;BME280;51310;52.198;5.422;2023-02-28T08:43:59;103006.34;;;1.15;100.00
64844;BME280;51310;52.198;5.422;2023-02-28T08:46:26;103002.69;;;1.18;100.00
64844;BME280;51310;52.198;5.422;2023-02-28T08:48:56;103007.16;;;1.35;100.00
64844;BME280;51310;52.198;5.422;2023-02-28T08:51:26;103012.25;;;1.50;100.00
64844;BME280;51310;52.198;5.422;2023-02-28T08:53:58;103010.34;;;1.34;100.00
64844;BME280;51310;52.198;5.422;2023-02-28T08:56:26;103014.13;;;1.51;100.00
64844;BME280;51310;52.198;5.422;2023-02-28T08:58:56;103018.09;;;1.55;100.00
64844;BME280;51310;52.198;5.422;2023-02-28T09:01:28;103012.84;;;1.59;100.00
64844;BME280;51310;52.198;5.422;2023-02-28T09:03:55;103014.97;;;1.61;100.00
64844;BME280;51310;52.198;5.422;2023-02-28T09:06:24;103015.72;;;1.66;100.00
64844;BME280;51310;52.198;5.422;2023-02-28T09:08:51;103023.94;;;1.59;100.00
64844;BME280;51310;52.198;5.422;2023-02-28T09:11:18;103025.44;;;1.53;100.00
64844;BME280;51310;52.198;5.422;2023-02-28T09:13:45;103014.53;;;1.64;100.00
64844;BME280;51310;52.198;5.422;2023-02-28T09:16:15;103020.41;;;1.69;100.00
64844;BME280;51310;52.198;5.422;2023-02-28T09:18:43;103011.59;;;1.82;100.00
64844;BME280;51310;52.198;5.422;2023-02-28T09:21:14;103017.13;;;1.95;100.00
64844;BME280;51310;52.198;5.422;2023-02-28T09:23:45;103017.44;;;2.02;100.00
64844;BME280;51310;52.198;5.422;2023-02-28T09:26:24;103019.38;;;2.09;100.00
64844;BME280;51310;52.198;5.422;2023-02-28T09:28:51;103012.38;;;2.54;100.00
64844;BME280;51310;52.198;5.422;2023-02-28T09:31:27;103013.44;;;2.86;99.16
64844;BME280;51310;52.198;5.422;2023-02-28T09:33:56;103016.63;;;3.06;95.67
64844;BME280;51310;52.198;5.422;2023-02-28T09:36:25;103013.44;;;3.07;89.77
64844;BME280;51310;52.198;5.422;2023-02-28T09:38:51;103010.50;;;3.16;83.80
64844;BME280;51310;52.198;5.422;2023-02-28T09:41:44;103012.91;;;3.25;82.28
64844;BME280;51310;52.198;5.422;2023-02-28T09:44:41;103017.53;;;3.28;74.00
64844;BME280;51310;52.198;5.422;2023-02-28T09:47:27;103020.13;;;3.07;63.86
64844;BME280;51310;52.198;5.422;2023-02-28T09:52:45;103023.91;;;3.15;61.66
64844;BME280;51310;52.198;5.422;2023-02-28T09:55:44;103031.09;;;3.17;56.92
64844;BME280;51310;52.198;5.422;2023-02-28T09:58:54;103026.31;;;3.24;57.80
64844;BME280;51310;52.198;5.422;2023-02-28T10:04:12;103034.72;;;3.08;54.23
64844;BME280;51310;52.198;5.422;2023-02-28T10:06:49;103034.22;;;3.05;51.71
64844;BME280;51310;52.198;5.422;2023-02-28T10:09:29;103028.53;;;3.17;51.95
64844;BME280;51310;52.198;5.422;2023-02-28T10:12:04;103023.69;;;3.40;52.85
64844;BME280;51310;52.198;5.422;2023-02-28T10:14:34;103021.88;;;3.44;52.02
64844;BME280;51310;52.198;5.422;2023-02-28T10:17:16;103031.28;;;3.61;51.73
64844;BME280;51310;52.198;5.422;2023-02-28T10:20:06;103026.91;;;3.65;50.26
64844;BME280;51310;52.198;5.422;2023-02-28T10:25:36;103020.34;;;3.83;50.32
64844;BME280;51310;52.198;5.422;2023-02-28T10:28:20;103018.09;;;3.63;49.81
64844;BME280;51310;52.198;5.422;2023-02-28T10:30:52;103009.97;;;3.93;50.88
64844;BME280;51310;52.198;5.422;2023-02-28T10:33:26;103011.44;;;4.07;50.87
64844;BME280;51310;52.198;5.422;2023-02-28T10:35:53;103003.94;;;3.92;50.87
64844;BME280;51310;52.198;5.422;2023-02-28T10:38:25;103012.72;;;3.88;52.51
64844;BME280;51310;52.198;5.422;2023-02-28T10:40:52;103015.88;;;3.76;50.41
64844;BME280;51310;52.198;5.422;2023-02-28T10:43:28;103009.81;;;3.70;51.56
64844;BME280;51310;52.198;5.422;2023-02-28T10:48:44;103008.78;;;3.90;49.51
64844;BME280;51310;52.198;5.422;2023-02-28T10:51:13;103010.63;;;3.86;49.04
64844;BME280;51310;52.198;5.422;2023-02-28T10:53:50;103004.88;;;3.60;48.82
64844;BME280;51310;52.198;5.422;2023-02-28T10:56:22;103002.09;;;3.59;49.36
64844;BME280;51310;52.198;5.422;2023-02-28T10:59:27;102991.28;;;3.65;50.05
64844;BME280;51310;52.198;5.422;2023-02-28T11:01:53;102994.69;;;3.60;50.04
64844;BME280;51310;52.198;5.422;2023-02-28T11:06:57;102992.25;;;3.77;49.49
64844;BME280;51310;52.198;5.422;2023-02-28T11:09:39;102988.03;;;3.66;48.68
64844;BME280;51310;52.198;5.422;2023-02-28T11:12:34;102984.66;;;3.83;49.16
64844;BME280;51310;52.198;5.422;2023-02-28T11:15:22;102990.28;;;3.92;48.77
64844;BME280;51310;52.198;5.422;2023-02-28T11:18:02;102984.16;;;3.74;48.42
64844;BME280;51310;52.198;5.422;2023-02-28T11:20:33;102976.31;;;3.78;48.81
64844;BME280;51310;52.198;5.422;2023-02-28T11:23:02;102977.94;;;3.83;48.33
64844;BME280;51310;52.198;5.422;2023-02-28T11:25:33;102977.75;;;3.87;48.12
64844;BME280;51310;52.198;5.422;2023-02-28T11:28:06;102974.59;;;4.05;48.15
64844;BME280;51310;52.198;5.422;2023-02-28T11:33:54;102977.81;;;3.93;47.76
64844;BME280;51310;52.198;5.422;2023-02-28T11:38:48;102972.41;;;3.86;46.76
64844;BME280;51310;52.198;5.422;2023-02-28T11:46:57;102950.97;;;4.01;47.19
64844;BME280;51310;52.198;5.422;2023-02-28T11:55:45;102949.16;;;4.11;47.29
64844;BME280;51310;52.198;5.422;2023-02-28T12:07:53;102950.38;;;4.24;45.76
64844;BME280;51310;52.198;5.422;2023-02-28T12:16:04;102944.53;;;4.14;45.30
64844;BME280;51310;52.198;5.422;2023-02-28T12:19:19;102942.94;;;4.20;45.26
64844;BME280;51310;52.198;5.422;2023-02-28T12:22:28;102933.03;;;4.33;45.45
64844;BME280;51310;52.198;5.422;2023-02-28T12:28:33;102932.78;;;4.26;44.64
64844;BME280;51310;52.198;5.422;2023-02-28T12:31:22;102935.09;;;4.24;44.40
64844;BME280;51310;52.198;5.422;2023-02-28T12:33:59;102922.59;;;4.31;45.36
64844;BME280;51310;52.198;5.422;2023-02-28T12:36:27;102917.53;;;4.48;45.63
64844;BME280;51310;52.198;5.422;2023-02-28T12:39:20;102922.88;;;4.39;44.89
64844;BME280;51310;52.198;5.422;2023-02-28T12:42:02;102920.59;;;4.57;44.51
64844;BME280;51310;52.198;5.422;2023-02-28T12:44:39;102922.00;;;4.61;44.29
64844;BME280;51310;52.198;5.422;2023-02-28T12:47:17;102924.53;;;4.55;44.00
64844;BME280;51310;52.198;5.422;2023-02-28T12:49:59;102918.50;;;4.55;44.40
64844;BME280;51310;52.198;5.422;2023-02-28T12:55:40;102908.59;;;4.73;44.83
64844;BME280;51310;52.198;5.422;2023-02-28T12:58:50;102917.59;;;4.65;43.46
64844;BME280;51310;52.198;5.422;2023-02-28T13:10:00;102912.69;;;4.50;42.72
64844;BME280;51310;52.198;5.422;2023-02-28T13:12:28;102906.41;;;4.42;43.24
64844;BME280;51310;52.198;5.422;2023-02-28T13:15:25;102899.94;;;4.56;43.22
64844;BME280;51310;52.198;5.422;2023-02-28T13:17:57;102903.69;;;4.63;44.18
64844;BME280;51310;52.198;5.422;2023-02-28T13:20:35;102896.94;;;4.64;43.68
64844;BME280;51310;52.198;5.422;2023-02-28T13:23:03;102903.25;;;4.71;44.00
64844;BME280;51310;52.198;5.422;2023-02-28T13:28:09;102902.28;;;4.65;41.80
64844;BME280;51310;52.198;5.422;2023-02-28T13:33:36;102890.91;;;4.58;42.81
64844;BME280;51310;52.198;5.422;2023-02-28T13:38:52;102880.53;;;4.73;41.53
64844;BME280;51310;52.198;5.422;2023-02-28T13:54:58;102890.94;;;4.75;42.19
64844;BME280;51310;52.198;5.422;2023-02-28T14:05:43;102866.38;;;4.86;42.04
64844;BME280;51310;52.198;5.422;2023-02-28T14:08:18;102870.06;;;4.83;41.69
64844;BME280;51310;52.198;5.422;2023-02-28T14:10:49;102863.59;;;4.85;43.18
64844;BME280;51310;52.198;5.422;2023-02-28T14:13:45;102860.34;;;4.97;43.33
64844;BME280;51310;52.198;5.422;2023-02-28T14:16:16;102862.88;;;4.91;41.66
64844;BME280;51310;52.198;5.422;2023-02-28T14:18:56;102860.31;;;4.75;42.54
64844;BME280;51310;52.198;5.422;2023-02-28T14:21:35;102857.53;;;4.67;42.47
64844;BME280;51310;52.198;5.422;2023-02-28T14:24:32;102857.09;;;4.81;42.49
64844;BME280;51310;52.198;5.422;2023-02-28T14:27:30;102853.84;;;4.77;42.45
64844;BME280;51310;52.198;5.422;2023-02-28T14:33:27;102851.28;;;4.88;43.25
64844;BME280;51310;52.198;5.422;2023-02-28T14:36:20;102848.75;;;4.82;43.06
64844;BME280;51310;52.198;5.422;2023-02-28T14:39:01;102856.19;;;4.86;43.43
64844;BME280;51310;52.198;5.422;2023-02-28T14:41:36;102851.50;;;5.01;41.58
64844;BME280;51310;52.198;5.422;2023-02-28T14:44:19;102846.19;;;5.05;42.71
64844;BME280;51310;52.198;5.422;2023-02-28T14:46:49;102850.59;;;4.89;42.85
64844;BME280;51310;52.198;5.422;2023-02-28T14:49:32;102845.97;;;4.86;42.55
64844;BME280;51310;52.198;5.422;2023-02-28T14:52:17;102839.69;;;4.90;42.91
64844;BME280;51310;52.198;5.422;2023-02-28T14:54:45;102845.94;;;4.92;42.48
64844;BME280;51310;52.198;5.422;2023-02-28T14:57:34;102841.31;;;4.89;42.92
64844;BME280;51310;52.198;5.422;2023-02-28T15:02:41;102833.19;;;4.92;43.67
64844;BME280;51310;52.198;5.422;2023-02-28T15:07:39;102837.81;;;4.94;42.87
64844;BME280;51310;52.198;5.422;2023-02-28T15:10:22;102841.34;;;4.84;42.57
64844;BME280;51310;52.198;5.422;2023-02-28T15:12:57;102846.88;;;4.87;41.60
64844;BME280;51310;52.198;5.422;2023-02-28T15:15:58;102852.91;;;4.87;42.16
64844;BME280;51310;52.198;5.422;2023-02-28T15:18:53;102835.97;;;4.88;42.64
64844;BME280;51310;52.198;5.422;2023-02-28T15:21:27;102850.59;;;4.83;42.95
64844;BME280;51310;52.198;5.422;2023-02-28T15:24:21;102839.00;;;4.80;43.34